sensor_id;sensor_type;location;lat;lon;timestamp;temperature;humidity
68764;DHT22;55754;52.038;5.566;2023-02-28T00:01:39;2.10;89.50
68764;DHT22;55754;52.038;5.566;2023-02-28T00:04:05;2.10;90.00
68764;DHT22;55754;52.038;5.566;2023-02-28T00:06:30;2.10;89.70
68764;DHT22;55754;52.038;5.566;2023-02-28T00:08:56;2.10;89.70
68764;DHT22;55754;52.038;5.566;2023-02-28T00:11:21;2.10;90.00
68764;DHT22;55754;52.038;5.566;2023-02-28T00:13:47;2.20;89.90
68764;DHT22;55754;52.038;5.566;2023-02-28T00:16:17;2.20;89.50
68764;DHT22;55754;52.038;5.566;2023-02-28T00:18:43;2.30;90.20
68764;DHT22;55754;52.038;5.566;2023-02-28T00:21:08;2.30;90.50
68764;DHT22;55754;52.038;5.566;2023-02-28T00:23:35;2.40;90.40
68764;DHT22;55754;52.038;5.566;2023-02-28T00:26:00;2.40;90.20
68764;DHT22;55754;52.038;5.566;2023-02-28T00:28:26;2.40;90.60
68764;DHT22;55754;52.038;5.566;2023-02-28T00:30:52;2.50;90.80
68764;DHT22;55754;52.038;5.566;2023-02-28T00:33:18;2.50;90.70
68764;DHT22;55754;52.038;5.566;2023-02-28T00:35:43;2.50;90.50
68764;DHT22;55754;52.038;5.566;2023-02-28T00:38:12;2.50;90.40
68764;DHT22;55754;52.038;5.566;2023-02-28T00:40:37;2.50;90.30
68764;DHT22;55754;52.038;5.566;2023-02-28T00:43:03;2.60;90.20
68764;DHT22;55754;52.038;5.566;2023-02-28T00:45:29;2.60;90.30
68764;DHT22;55754;52.038;5.566;2023-02-28T00:47:54;2.60;89.90
68764;DHT22;55754;52.038;5.566;2023-02-28T00:50:20;2.70;89.60
68764;DHT22;55754;52.038;5.566;2023-02-28T00:52:46;2.60;89.40
68764;DHT22;55754;52.038;5.566;2023-02-28T00:55:12;2.60;88.90
68764;DHT22;55754;52.038;5.566;2023-02-28T00:57:38;2.60;88.90
68764;DHT22;55754;52.038;5.566;2023-02-28T01:00:05;2.60;88.80
68764;DHT22;55754;52.038;5.566;2023-02-28T01:02:30;2.60;88.80
68764;DHT22;55754;52.038;5.566;2023-02-28T01:04:56;2.60;89.40
68764;DHT22;55754;52.038;5.566;2023-02-28T01:07:24;2.60;88.80
68764;DHT22;55754;52.038;5.566;2023-02-28T01:09:50;2.60;89.30
68764;DHT22;55754;52.038;5.566;2023-02-28T01:12:16;2.60;89.50
68764;DHT22;55754;52.038;5.566;2023-02-28T01:14:42;2.60;89.70
68764;DHT22;55754;52.038;5.566;2023-02-28T01:17:08;2.70;89.50
68764;DHT22;55754;52.038;5.566;2023-02-28T01:19:34;2.70;89.50
68764;DHT22;55754;52.038;5.566;2023-02-28T01:22:02;2.70;89.60
68764;DHT22;55754;52.038;5.566;2023-02-28T01:24:28;2.70;89.50
68764;DHT22;55754;52.038;5.566;2023-02-28T01:26:53;2.70;89.60
68764;DHT22;55754;52.038;5.566;2023-02-28T01:29:19;2.70;89.80
68764;DHT22;55754;52.038;5.566;2023-02-28T01:31:44;2.70;90.10
68764;DHT22;55754;52.038;5.566;2023-02-28T01:34:10;2.70;89.80
68764;DHT22;55754;52.038;5.566;2023-02-28T01:36:35;2.80;90.00
68764;DHT22;55754;52.038;5.566;2023-02-28T01:39:02;2.80;89.80
68764;DHT22;55754;52.038;5.566;2023-02-28T01:41:31;2.80;90.00
68764;DHT22;55754;52.038;5.566;2023-02-28T01:44:03;2.80;90.50
68764;DHT22;55754;52.038;5.566;2023-02-28T01:46:30;2.80;90.00
68764;DHT22;55754;52.038;5.566;2023-02-28T01:48:58;2.90;90.50
68764;DHT22;55754;52.038;5.566;2023-02-28T01:51:26;2.90;90.40
68764;DHT22;55754;52.038;5.566;2023-02-28T01:54:05;2.90;90.20
68764;DHT22;55754;52.038;5.566;2023-02-28T01:56:40;2.90;90.20
68764;DHT22;55754;52.038;5.566;2023-02-28T01:59:09;2.90;90.10
68764;DHT22;55754;52.038;5.566;2023-02-28T02:01:35;2.90;90.10
68764;DHT22;55754;52.038;5.566;2023-02-28T02:04:02;2.90;90.90
68764;DHT22;55754;52.038;5.566;2023-02-28T02:06:34;2.90;90.90
68764;DHT22;55754;52.038;5.566;2023-02-28T02:09:01;2.90;91.10
68764;DHT22;55754;52.038;5.566;2023-02-28T02:11:27;3.00;91.10
68764;DHT22;55754;52.038;5.566;2023-02-28T02:19:54;3.00;91.30
68764;DHT22;55754;52.038;5.566;2023-02-28T02:31:13;3.00;91.30
68764;DHT22;55754;52.038;5.566;2023-02-28T02:36:45;3.00;91.60
68764;DHT22;55754;52.038;5.566;2023-02-28T02:39:16;3.00;91.40
68764;DHT22;55754;52.038;5.566;2023-02-28T02:41:51;3.10;91.40
68764;DHT22;55754;52.038;5.566;2023-02-28T02:46:44;3.10;91.00
68764;DHT22;55754;52.038;5.566;2023-02-28T02:49:17;3.10;91.20
68764;DHT22;55754;52.038;5.566;2023-02-28T02:51:46;3.10;91.60
68764;DHT22;55754;52.038;5.566;2023-02-28T02:54:22;3.10;91.60
68764;DHT22;55754;52.038;5.566;2023-02-28T02:56:49;3.10;92.20
68764;DHT22;55754;52.038;5.566;2023-02-28T02:59:18;3.10;91.70
68764;DHT22;55754;52.038;5.566;2023-02-28T03:01:50;3.10;91.50
68764;DHT22;55754;52.038;5.566;2023-02-28T03:04:19;3.10;91.50
68764;DHT22;55754;52.038;5.566;2023-02-28T03:06:45;4.40;91.80
68764;DHT22;55754;52.038;5.566;2023-02-28T03:09:11;3.10;91.30
68764;DHT22;55754;52.038;5.566;2023-02-28T03:11:37;3.10;91.20
68764;DHT22;55754;52.038;5.566;2023-02-28T03:16:54;3.10;90.90
68764;DHT22;55754;52.038;5.566;2023-02-28T03:30:31;3.20;91.00
68764;DHT22;55754;52.038;5.566;2023-02-28T03:33:26;3.20;90.90
68764;DHT22;55754;52.038;5.566;2023-02-28T03:35:59;3.20;91.30
68764;DHT22;55754;52.038;5.566;2023-02-28T03:41:06;3.10;90.80
68764;DHT22;55754;52.038;5.566;2023-02-28T03:43:37;3.10;90.80
68764;DHT22;55754;52.038;5.566;2023-02-28T03:46:08;3.10;90.60
68764;DHT22;55754;52.038;5.566;2023-02-28T03:48:44;3.00;90.70
68764;DHT22;55754;52.038;5.566;2023-02-28T03:51:17;3.00;90.70
68764;DHT22;55754;52.038;5.566;2023-02-28T03:53:49;3.00;90.60
68764;DHT22;55754;52.038;5.566;2023-02-28T03:56:25;3.00;90.60
68764;DHT22;55754;52.038;5.566;2023-02-28T04:01:39;2.90;89.90
68764;DHT22;55754;52.038;5.566;2023-02-28T04:04:07;2.90;88.60
68764;DHT22;55754;52.038;5.566;2023-02-28T04:06:34;2.90;85.70
68764;DHT22;55754;52.038;5.566;2023-02-28T04:09:01;2.90;85.20
68764;DHT22;55754;52.038;5.566;2023-02-28T04:11:41;2.90;84.10
68764;DHT22;55754;52.038;5.566;2023-02-28T04:14:09;2.80;83.50
68764;DHT22;55754;52.038;5.566;2023-02-28T04:16:37;2.80;85.20
68764;DHT22;55754;52.038;5.566;2023-02-28T04:19:04;2.80;84.70
68764;DHT22;55754;52.038;5.566;2023-02-28T04:21:51;2.80;85.10
68764;DHT22;55754;52.038;5.566;2023-02-28T04:24:22;2.80;85.60
68764;DHT22;55754;52.038;5.566;2023-02-28T04:26:50;2.70;85.40
68764;DHT22;55754;52.038;5.566;2023-02-28T04:29:27;2.70;85.40
68764;DHT22;55754;52.038;5.566;2023-02-28T04:31:54;2.60;85.50
68764;DHT22;55754;52.038;5.566;2023-02-28T04:34:20;2.60;85.70
68764;DHT22;55754;52.038;5.566;2023-02-28T04:36:47;2.50;85.90
68764;DHT22;55754;52.038;5.566;2023-02-28T04:39:15;2.50;86.00
68764;DHT22;55754;52.038;5.566;2023-02-28T04:41:41;2.50;86.50
68764;DHT22;55754;52.038;5.566;2023-02-28T04:44:06;2.50;86.80
68764;DHT22;55754;52.038;5.566;2023-02-28T04:46:32;2.50;86.80
68764;DHT22;55754;52.038;5.566;2023-02-28T04:48:57;2.60;86.80
68764;DHT22;55754;52.038;5.566;2023-02-28T04:51:24;2.60;86.20
68764;DHT22;55754;52.038;5.566;2023-02-28T04:53:49;2.60;86.00
68764;DHT22;55754;52.038;5.566;2023-02-28T04:56:16;2.60;86.20
68764;DHT22;55754;52.038;5.566;2023-02-28T04:58:43;2.70;86.60
68764;DHT22;55754;52.038;5.566;2023-02-28T05:03:48;2.70;86.50
68764;DHT22;55754;52.038;5.566;2023-02-28T05:06:15;2.70;86.80
68764;DHT22;55754;52.038;5.566;2023-02-28T05:08:47;2.70;87.10
68764;DHT22;55754;52.038;5.566;2023-02-28T05:11:33;2.80;87.20
68764;DHT22;55754;52.038;5.566;2023-02-28T05:14:12;2.80;87.10
68764;DHT22;55754;52.038;5.566;2023-02-28T05:16:37;2.80;87.30
68764;DHT22;55754;52.038;5.566;2023-02-28T05:19:03;2.80;87.50
68764;DHT22;55754;52.038;5.566;2023-02-28T05:24:00;2.90;88.10
68764;DHT22;55754;52.038;5.566;2023-02-28T05:26:27;2.90;87.60
68764;DHT22;55754;52.038;5.566;2023-02-28T05:28:54;2.90;87.90
68764;DHT22;55754;52.038;5.566;2023-02-28T05:31:21;3.00;88.20
68764;DHT22;55754;52.038;5.566;2023-02-28T05:33:47;3.00;89.30
68764;DHT22;55754;52.038;5.566;2023-02-28T05:36:13;3.00;88.70
68764;DHT22;55754;52.038;5.566;2023-02-28T05:38:38;3.00;88.70
68764;DHT22;55754;52.038;5.566;2023-02-28T05:41:08;3.00;88.60
68764;DHT22;55754;52.038;5.566;2023-02-28T05:43:35;3.00;88.50
68764;DHT22;55754;52.038;5.566;2023-02-28T05:46:05;3.00;88.60
68764;DHT22;55754;52.038;5.566;2023-02-28T05:48:35;3.00;89.00
68764;DHT22;55754;52.038;5.566;2023-02-28T05:51:02;3.00;88.70
68764;DHT22;55754;52.038;5.566;2023-02-28T05:53:28;3.00;88.60
68764;DHT22;55754;52.038;5.566;2023-02-28T05:55:54;3.00;88.60
68764;DHT22;55754;52.038;5.566;2023-02-28T05:58:20;3.00;89.30
68764;DHT22;55754;52.038;5.566;2023-02-28T06:00:46;3.00;89.10
68764;DHT22;55754;52.038;5.566;2023-02-28T06:03:12;3.00;89.20
68764;DHT22;55754;52.038;5.566;2023-02-28T06:05:38;3.10;89.20
68764;DHT22;55754;52.038;5.566;2023-02-28T06:08:04;3.10;90.00
68764;DHT22;55754;52.038;5.566;2023-02-28T06:10:31;3.00;88.90
68764;DHT22;55754;52.038;5.566;2023-02-28T06:13:00;3.00;88.70
68764;DHT22;55754;52.038;5.566;2023-02-28T06:15:28;3.00;89.20
68764;DHT22;55754;52.038;5.566;2023-02-28T06:17:54;3.00;88.90
68764;DHT22;55754;52.038;5.566;2023-02-28T06:20:21;3.00;89.30
68764;DHT22;55754;52.038;5.566;2023-02-28T06:22:47;3.10;89.70
68764;DHT22;55754;52.038;5.566;2023-02-28T06:25:12;3.00;88.80
68764;DHT22;55754;52.038;5.566;2023-02-28T06:27:38;3.40;91.90
68764;DHT22;55754;52.038;5.566;2023-02-28T06:30:04;3.30;90.40
68764;DHT22;55754;52.038;5.566;2023-02-28T06:32:30;3.20;90.30
68764;DHT22;55754;52.038;5.566;2023-02-28T06:34:55;3.20;90.30
68764;DHT22;55754;52.038;5.566;2023-02-28T06:37:23;3.20;90.20
68764;DHT22;55754;52.038;5.566;2023-02-28T06:39:51;3.20;89.90
68764;DHT22;55754;52.038;5.566;2023-02-28T06:42:17;3.10;89.60
68764;DHT22;55754;52.038;5.566;2023-02-28T06:44:42;3.10;89.40
68764;DHT22;55754;52.038;5.566;2023-02-28T06:47:08;3.10;89.40
68764;DHT22;55754;52.038;5.566;2023-02-28T06:49:35;3.00;89.40
68764;DHT22;55754;52.038;5.566;2023-02-28T06:52:01;3.00;89.40
68764;DHT22;55754;52.038;5.566;2023-02-28T06:54:27;3.00;89.80
68764;DHT22;55754;52.038;5.566;2023-02-28T06:56:52;3.00;89.80
68764;DHT22;55754;52.038;5.566;2023-02-28T06:59:19;3.00;89.60
68764;DHT22;55754;52.038;5.566;2023-02-28T07:01:45;3.00;89.40
68764;DHT22;55754;52.038;5.566;2023-02-28T07:04:11;3.00;89.70
68764;DHT22;55754;52.038;5.566;2023-02-28T07:06:38;3.00;90.00
68764;DHT22;55754;52.038;5.566;2023-02-28T07:09:04;2.90;89.90
68764;DHT22;55754;52.038;5.566;2023-02-28T07:11:29;2.90;89.90
68764;DHT22;55754;52.038;5.566;2023-02-28T07:13:56;2.90;90.00
68764;DHT22;55754;52.038;5.566;2023-02-28T07:16:23;2.90;90.00
68764;DHT22;55754;52.038;5.566;2023-02-28T07:18:49;2.90;90.00
68764;DHT22;55754;52.038;5.566;2023-02-28T07:21:17;2.90;90.10
68764;DHT22;55754;52.038;5.566;2023-02-28T07:23:42;2.90;90.20
68764;DHT22;55754;52.038;5.566;2023-02-28T07:26:16;2.90;90.20
68764;DHT22;55754;52.038;5.566;2023-02-28T07:28:43;2.90;90.20
68764;DHT22;55754;52.038;5.566;2023-02-28T07:31:10;3.00;90.20
68764;DHT22;55754;52.038;5.566;2023-02-28T07:33:42;3.00;90.10
68764;DHT22;55754;52.038;5.566;2023-02-28T07:36:17;3.00;89.60
68764;DHT22;55754;52.038;5.566;2023-02-28T07:38:47;3.10;90.10
68764;DHT22;55754;52.038;5.566;2023-02-28T07:41:18;3.00;89.50
68764;DHT22;55754;52.038;5.566;2023-02-28T07:43:44;3.00;89.20
68764;DHT22;55754;52.038;5.566;2023-02-28T07:46:12;2.90;89.30
68764;DHT22;55754;52.038;5.566;2023-02-28T07:48:38;3.00;89.80
68764;DHT22;55754;52.038;5.566;2023-02-28T07:51:03;3.00;89.10
68764;DHT22;55754;52.038;5.566;2023-02-28T07:53:30;3.10;89.10
68764;DHT22;55754;52.038;5.566;2023-02-28T07:55:56;3.10;89.30
68764;DHT22;55754;52.038;5.566;2023-02-28T07:58:22;3.10;89.30
68764;DHT22;55754;52.038;5.566;2023-02-28T08:00:49;3.20;88.40
68764;DHT22;55754;52.038;5.566;2023-02-28T08:03:18;3.20;87.50
68764;DHT22;55754;52.038;5.566;2023-02-28T08:05:45;4.30;87.60
68764;DHT22;55754;52.038;5.566;2023-02-28T08:08:10;3.30;86.60
68764;DHT22;55754;52.038;5.566;2023-02-28T08:10:36;3.30;85.50
68764;DHT22;55754;52.038;5.566;2023-02-28T08:13:02;3.40;84.20
68764;DHT22;55754;52.038;5.566;2023-02-28T08:15:28;3.50;83.90
68764;DHT22;55754;52.038;5.566;2023-02-28T08:17:54;3.50;82.90
68764;DHT22;55754;52.038;5.566;2023-02-28T08:20:22;3.50;79.30
68764;DHT22;55754;52.038;5.566;2023-02-28T08:22:48;3.60;80.00
68764;DHT22;55754;52.038;5.566;2023-02-28T08:25:14;3.60;78.70
68764;DHT22;55754;52.038;5.566;2023-02-28T08:27:39;3.60;75.60
68764;DHT22;55754;52.038;5.566;2023-02-28T08:30:05;3.60;71.10
68764;DHT22;55754;52.038;5.566;2023-02-28T08:32:32;3.70;74.00
68764;DHT22;55754;52.038;5.566;2023-02-28T08:34:58;3.80;72.60
68764;DHT22;55754;52.038;5.566;2023-02-28T08:37:24;3.90;67.60
68764;DHT22;55754;52.038;5.566;2023-02-28T08:39:50;4.00;68.50
68764;DHT22;55754;52.038;5.566;2023-02-28T08:42:16;4.20;68.30
68764;DHT22;55754;52.038;5.566;2023-02-28T08:44:48;4.20;65.50
68764;DHT22;55754;52.038;5.566;2023-02-28T08:47:13;4.30;63.30
68764;DHT22;55754;52.038;5.566;2023-02-28T08:49:39;4.40;61.10
68764;DHT22;55754;52.038;5.566;2023-02-28T08:52:04;4.50;64.30
68764;DHT22;55754;52.038;5.566;2023-02-28T08:54:30;4.70;64.30
68764;DHT22;55754;52.038;5.566;2023-02-28T08:56:57;4.80;63.60
68764;DHT22;55754;52.038;5.566;2023-02-28T08:59:23;5.00;62.40
68764;DHT22;55754;52.038;5.566;2023-02-28T09:01:48;5.20;62.10
68764;DHT22;55754;52.038;5.566;2023-02-28T09:04:14;5.20;57.90
68764;DHT22;55754;52.038;5.566;2023-02-28T09:06:39;5.10;55.00
68764;DHT22;55754;52.038;5.566;2023-02-28T09:09:05;5.00;54.50
68764;DHT22;55754;52.038;5.566;2023-02-28T09:11:33;5.10;54.10
68764;DHT22;55754;52.038;5.566;2023-02-28T09:14:00;5.10;52.60
68764;DHT22;55754;52.038;5.566;2023-02-28T09:16:29;5.30;53.30
68764;DHT22;55754;52.038;5.566;2023-02-28T09:18:56;5.50;51.80
68764;DHT22;55754;52.038;5.566;2023-02-28T09:21:21;5.50;51.40
68764;DHT22;55754;52.038;5.566;2023-02-28T09:23:49;5.70;49.50
68764;DHT22;55754;52.038;5.566;2023-02-28T09:26:23;5.60;47.80
68764;DHT22;55754;52.038;5.566;2023-02-28T09:28:50;5.50;50.60
68764;DHT22;55754;52.038;5.566;2023-02-28T09:31:24;5.40;50.40
68764;DHT22;55754;52.038;5.566;2023-02-28T09:33:51;5.50;50.60
68764;DHT22;55754;52.038;5.566;2023-02-28T09:36:17;5.70;50.10
68764;DHT22;55754;52.038;5.566;2023-02-28T09:38:43;5.90;52.10
68764;DHT22;55754;52.038;5.566;2023-02-28T09:41:25;6.10;49.80
68764;DHT22;55754;52.038;5.566;2023-02-28T09:43:56;6.00;48.70
68764;DHT22;55754;52.038;5.566;2023-02-28T09:46:34;6.00;50.00
68764;DHT22;55754;52.038;5.566;2023-02-28T09:49:06;6.20;49.80
68764;DHT22;55754;52.038;5.566;2023-02-28T09:52:00;6.20;49.20
68764;DHT22;55754;52.038;5.566;2023-02-28T09:54:29;6.10;48.20
68764;DHT22;55754;52.038;5.566;2023-02-28T09:57:08;6.10;49.30
68764;DHT22;55754;52.038;5.566;2023-02-28T09:59:49;6.10;49.60
68764;DHT22;55754;52.038;5.566;2023-02-28T10:05:12;6.40;49.10
68764;DHT22;55754;52.038;5.566;2023-02-28T10:10:26;6.40;47.70
68764;DHT22;55754;52.038;5.566;2023-02-28T10:12:55;6.40;47.60
68764;DHT22;55754;52.038;5.566;2023-02-28T10:15:24;6.40;48.10
68764;DHT22;55754;52.038;5.566;2023-02-28T10:17:54;6.30;47.10
68764;DHT22;55754;52.038;5.566;2023-02-28T10:20:23;6.30;46.10
68764;DHT22;55754;52.038;5.566;2023-02-28T10:25:37;6.10;45.90
68764;DHT22;55754;52.038;5.566;2023-02-28T10:28:11;6.20;47.10
68764;DHT22;55754;52.038;5.566;2023-02-28T10:30:49;6.20;45.40
68764;DHT22;55754;52.038;5.566;2023-02-28T10:33:24;6.20;46.40
68764;DHT22;55754;52.038;5.566;2023-02-28T10:35:50;6.30;46.30
68764;DHT22;55754;52.038;5.566;2023-02-28T10:38:20;6.20;45.70
68764;DHT22;55754;52.038;5.566;2023-02-28T10:40:46;6.30;44.10
68764;DHT22;55754;52.038;5.566;2023-02-28T10:45:57;6.40;45.10
68764;DHT22;55754;52.038;5.566;2023-02-28T10:48:36;6.60;45.40
68764;DHT22;55754;52.038;5.566;2023-02-28T10:51:03;6.60;43.90
68764;DHT22;55754;52.038;5.566;2023-02-28T10:53:35;6.70;45.20
68764;DHT22;55754;52.038;5.566;2023-02-28T10:58:56;6.60;45.60
68764;DHT22;55754;52.038;5.566;2023-02-28T11:01:40;6.90;45.70
68764;DHT22;55754;52.038;5.566;2023-02-28T11:07:18;7.00;45.40
68764;DHT22;55754;52.038;5.566;2023-02-28T11:09:46;7.10;44.80
68764;DHT22;55754;52.038;5.566;2023-02-28T11:12:26;7.10;44.70
68764;DHT22;55754;52.038;5.566;2023-02-28T11:15:26;7.10;44.80
68764;DHT22;55754;52.038;5.566;2023-02-28T11:20:32;7.10;45.30
68764;DHT22;55754;52.038;5.566;2023-02-28T11:23:01;7.20;44.80
68764;DHT22;55754;52.038;5.566;2023-02-28T11:25:33;7.10;45.00
68764;DHT22;55754;52.038;5.566;2023-02-28T11:28:02;7.10;44.60
68764;DHT22;55754;52.038;5.566;2023-02-28T11:30:39;7.10;44.70
68764;DHT22;55754;52.038;5.566;2023-02-28T11:35:49;7.30;44.80
68764;DHT22;55754;52.038;5.566;2023-02-28T11:38:15;7.40;45.50
68764;DHT22;55754;52.038;5.566;2023-02-28T11:43:52;7.50;44.00
68764;DHT22;55754;52.038;5.566;2023-02-28T11:54:47;7.50;45.40
68764;DHT22;55754;52.038;5.566;2023-02-28T11:57:32;7.60;44.40
68764;DHT22;55754;52.038;5.566;2023-02-28T12:05:53;7.60;44.30
68764;DHT22;55754;52.038;5.566;2023-02-28T12:14:46;7.40;43.60
68764;DHT22;55754;52.038;5.566;2023-02-28T12:17:37;7.30;43.10
68764;DHT22;55754;52.038;5.566;2023-02-28T12:28:21;7.30;44.40
68764;DHT22;55754;52.038;5.566;2023-02-28T12:31:06;7.30;42.00
68764;DHT22;55754;52.038;5.566;2023-02-28T12:33:40;7.30;43.30
68764;DHT22;55754;52.038;5.566;2023-02-28T12:36:11;7.30;43.00
68764;DHT22;55754;52.038;5.566;2023-02-28T12:38:41;7.50;43.20
68764;DHT22;55754;52.038;5.566;2023-02-28T12:43:44;7.60;43.60
68764;DHT22;55754;52.038;5.566;2023-02-28T12:46:19;7.40;42.40
68764;DHT22;55754;52.038;5.566;2023-02-28T12:48:50;7.50;44.10
68764;DHT22;55754;52.038;5.566;2023-02-28T12:51:18;7.60;42.90
68764;DHT22;55754;52.038;5.566;2023-02-28T12:54:03;7.50;42.70
68764;DHT22;55754;52.038;5.566;2023-02-28T12:59:27;7.40;41.80
68764;DHT22;55754;52.038;5.566;2023-02-28T13:10:50;7.40;42.90
68764;DHT22;55754;52.038;5.566;2023-02-28T13:13:24;7.40;42.90
68764;DHT22;55754;52.038;5.566;2023-02-28T13:18:43;7.40;43.50
68764;DHT22;55754;52.038;5.566;2023-02-28T13:21:26;7.40;43.50
68764;DHT22;55754;52.038;5.566;2023-02-28T13:29:20;7.40;43.10
68764;DHT22;55754;52.038;5.566;2023-02-28T13:35:12;7.50;43.00
68764;DHT22;55754;52.038;5.566;2023-02-28T13:37:35;7.40;43.00
68764;DHT22;55754;52.038;5.566;2023-02-28T13:47:43;7.40;42.40
68764;DHT22;55754;52.038;5.566;2023-02-28T13:50:34;7.40;42.50
68764;DHT22;55754;52.038;5.566;2023-02-28T14:01:53;7.50;43.00
68764;DHT22;55754;52.038;5.566;2023-02-28T14:04:46;7.60;43.50
68764;DHT22;55754;52.038;5.566;2023-02-28T14:07:28;7.50;42.60
68764;DHT22;55754;52.038;5.566;2023-02-28T14:09:59;7.60;43.70
68764;DHT22;55754;52.038;5.566;2023-02-28T14:12:53;7.50;42.90
68764;DHT22;55754;52.038;5.566;2023-02-28T14:15:38;7.50;43.50
68764;DHT22;55754;52.038;5.566;2023-02-28T14:18:23;7.60;42.50
68764;DHT22;55754;52.038;5.566;2023-02-28T14:20:53;7.60;42.20
68764;DHT22;55754;52.038;5.566;2023-02-28T14:29:00;7.50;41.90
68764;DHT22;55754;52.038;5.566;2023-02-28T14:31:54;7.50;42.50
68764;DHT22;55754;52.038;5.566;2023-02-28T14:34:48;7.40;42.00
68764;DHT22;55754;52.038;5.566;2023-02-28T14:37:29;7.40;41.80
68764;DHT22;55754;52.038;5.566;2023-02-28T14:39:57;7.40;42.70
68764;DHT22;55754;52.038;5.566;2023-02-28T14:42:33;7.30;41.80
68764;DHT22;55754;52.038;5.566;2023-02-28T14:44:59;7.40;43.10
68764;DHT22;55754;52.038;5.566;2023-02-28T14:47:31;7.40;42.80
68764;DHT22;55754;52.038;5.566;2023-02-28T14:50:02;7.40;42.60
68764;DHT22;55754;52.038;5.566;2023-02-28T14:52:33;7.40;42.50
68764;DHT22;55754;52.038;5.566;2023-02-28T14:55:03;7.40;42.20
68764;DHT22;55754;52.038;5.566;2023-02-28T14:57:30;7.40;42.60
68764;DHT22;55754;52.038;5.566;2023-02-28T15:00:04;7.40;42.60
68764;DHT22;55754;52.038;5.566;2023-02-28T15:02:36;7.40;42.80
68764;DHT22;55754;52.038;5.566;2023-02-28T15:07:44;7.40;42.20
68764;DHT22;55754;52.038;5.566;2023-02-28T15:10:25;7.40;43.00
68764;DHT22;55754;52.038;5.566;2023-02-28T15:13:12;7.40;43.20
68764;DHT22;55754;52.038;5.566;2023-02-28T15:15:55;7.40;42.80
68764;DHT22;55754;52.038;5.566;2023-02-28T15:18:47;7.40;42.90
68764;DHT22;55754;52.038;5.566;2023-02-28T15:21:22;7.40;43.50
68764;DHT22;55754;52.038;5.566;2023-02-28T15:23:55;7.40;42.50
68764;DHT22;55754;52.038;5.566;2023-02-28T15:26:29;7.30;43.20
68764;DHT22;55754;52.038;5.566;2023-02-28T15:29:03;7.40;43.10
68764;DHT22;55754;52.038;5.566;2023-02-28T15:31:33;7.40;43.60
68764;DHT22;55754;52.038;5.566;2023-02-28T15:34:06;7.30;43.40
68764;DHT22;55754;52.038;5.566;2023-02-28T15:36:33;7.30;43.20
68764;DHT22;55754;52.038;5.566;2023-02-28T15:39:16;7.30;43.60
68764;DHT22;55754;52.038;5.566;2023-02-28T15:41:43;7.30;44.00
68764;DHT22;55754;52.038;5.566;2023-02-28T15:44:15;7.30;43.50
68764;DHT22;55754;52.038;5.566;2023-02-28T15:47:06;7.30;43.70
68764;DHT22;55754;52.038;5.566;2023-02-28T15:49:45;7.30;43.10
68764;DHT22;55754;52.038;5.566;2023-02-28T15:52:15;7.20;43.80
68764;DHT22;55754;52.038;5.566;2023-02-28T15:54:42;7.20;44.40
68764;DHT22;55754;52.038;5.566;2023-02-28T15:57:15;7.20;44.00
68764;DHT22;55754;52.038;5.566;2023-02-28T15:59:55;7.20;43.90
68764;DHT22;55754;52.038;5.566;2023-02-28T16:02:33;7.20;44.30
68764;DHT22;55754;52.038;5.566;2023-02-28T16:07:35;7.20;44.70
68764;DHT22;55754;52.038;5.566;2023-02-28T16:10:01;7.20;44.90
68764;DHT22;55754;52.038;5.566;2023-02-28T16:12:29;7.20;44.00
68764;DHT22;55754;52.038;5.566;2023-02-28T16:14:57;7.20;43.80
68764;DHT22;55754;52.038;5.566;2023-02-28T16:17:28;7.10;43.80
68764;DHT22;55754;52.038;5.566;2023-02-28T16:19:55;7.10;43.10
68764;DHT22;55754;52.038;5.566;2023-02-28T16:22:21;7.10;44.00
68764;DHT22;55754;52.038;5.566;2023-02-28T16:24:46;7.10;44.00
68764;DHT22;55754;52.038;5.566;2023-02-28T16:27:24;7.00;43.70
68764;DHT22;55754;52.038;5.566;2023-02-28T16:29:53;7.00;44.10
68764;DHT22;55754;52.038;5.566;2023-02-28T16:32:18;7.00;44.20
68764;DHT22;55754;52.038;5.566;2023-02-28T16:34:44;7.00;44.60
68764;DHT22;55754;52.038;5.566;2023-02-28T16:37:15;6.90;44.50
68764;DHT22;55754;52.038;5.566;2023-02-28T16:39:42;6.90;44.60
68764;DHT22;55754;52.038;5.566;2023-02-28T16:42:23;6.90;45.20
68764;DHT22;55754;52.038;5.566;2023-02-28T16:44:51;6.90;45.30
68764;DHT22;55754;52.038;5.566;2023-02-28T16:47:17;6.90;47.00
68764;DHT22;55754;52.038;5.566;2023-02-28T16:49:43;6.80;45.60
68764;DHT22;55754;52.038;5.566;2023-02-28T16:52:10;6.80;46.00
68764;DHT22;55754;52.038;5.566;2023-02-28T16:54:37;6.80;45.70
68764;DHT22;55754;52.038;5.566;2023-02-28T16:57:03;6.70;45.90
68764;DHT22;55754;52.038;5.566;2023-02-28T16:59:29;6.70;46.20
68764;DHT22;55754;52.038;5.566;2023-02-28T17:01:56;6.70;46.10
68764;DHT22;55754;52.038;5.566;2023-02-28T17:04:26;6.70;46.10
68764;DHT22;55754;52.038;5.566;2023-02-28T17:06:52;6.60;46.00
68764;DHT22;55754;52.038;5.566;2023-02-28T17:09:20;6.60;46.30
68764;DHT22;55754;52.038;5.566;2023-02-28T17:11:46;6.50;46.50
68764;DHT22;55754;52.038;5.566;2023-02-28T17:14:13;6.50;46.60
68764;DHT22;55754;52.038;5.566;2023-02-28T17:16:39;6.50;46.80
68764;DHT22;55754;52.038;5.566;2023-02-28T17:19:08;6.50;47.10
68764;DHT22;55754;52.038;5.566;2023-02-28T17:21:36;6.40;46.80
68764;DHT22;55754;52.038;5.566;2023-02-28T17:24:02;6.50;47.10
68764;DHT22;55754;52.038;5.566;2023-02-28T17:26:28;6.40;47.10
68764;DHT22;55754;52.038;5.566;2023-02-28T17:28:55;6.40;48.10
68764;DHT22;55754;52.038;5.566;2023-02-28T17:31:22;6.40;47.90
68764;DHT22;55754;52.038;5.566;2023-02-28T17:33:47;6.40;48.10
68764;DHT22;55754;52.038;5.566;2023-02-28T17:36:14;6.40;48.00
68764;DHT22;55754;52.038;5.566;2023-02-28T17:38:41;6.30;48.10
68764;DHT22;55754;52.038;5.566;2023-02-28T17:41:14;6.20;48.20
68764;DHT22;55754;52.038;5.566;2023-02-28T17:43:39;6.10;48.00
68764;DHT22;55754;52.038;5.566;2023-02-28T17:46:08;6.10;48.70
68764;DHT22;55754;52.038;5.566;2023-02-28T17:48:36;6.10;48.90
68764;DHT22;55754;52.038;5.566;2023-02-28T17:51:02;6.10;49.60
68764;DHT22;55754;52.038;5.566;2023-02-28T17:53:27;6.00;50.00
68764;DHT22;55754;52.038;5.566;2023-02-28T17:55:53;6.00;50.10
68764;DHT22;55754;52.038;5.566;2023-02-28T17:58:18;6.00;49.60
68764;DHT22;55754;52.038;5.566;2023-02-28T18:00:44;6.00;49.10
68764;DHT22;55754;52.038;5.566;2023-02-28T18:03:11;5.90;49.50
68764;DHT22;55754;52.038;5.566;2023-02-28T18:05:38;6.00;49.30
68764;DHT22;55754;52.038;5.566;2023-02-28T18:08:07;5.90;48.90
68764;DHT22;55754;52.038;5.566;2023-02-28T18:10:33;5.90;49.30
68764;DHT22;55754;52.038;5.566;2023-02-28T18:12:59;5.90;49.20
68764;DHT22;55754;52.038;5.566;2023-02-28T18:15:25;5.90;49.10
68764;DHT22;55754;52.038;5.566;2023-02-28T18:17:51;5.80;49.30
68764;DHT22;55754;52.038;5.566;2023-02-28T18:20:18;5.80;49.60
68764;DHT22;55754;52.038;5.566;2023-02-28T18:22:43;5.70;51.20
68764;DHT22;55754;52.038;5.566;2023-02-28T18:25:10;5.60;52.10
68764;DHT22;55754;52.038;5.566;2023-02-28T18:27:39;5.60;52.10
68764;DHT22;55754;52.038;5.566;2023-02-28T18:30:05;5.50;51.70
68764;DHT22;55754;52.038;5.566;2023-02-28T18:32:31;5.50;52.00